Terminal Aerodrome Forecast
Issued by NWS Albany, NY

Home | Current Version | Previous Version | Text Only | Print | Product List | Glossary On
Versions: 1 2 3 4 5 6 7 8 9 10 11 12 13 14 15 16 17 18 19
000
FTUS41 KALY 082328
TAFPOU
TAF
KPOU 082328Z 0900/0924 26008KT P6SM SCT070
     FM091200 28010KT P6SM VCSH BKN050
     FM091500 29015G25KT P6SM VCSH BKN060=

USA.gov is the U.S. government's official web portal to all federal, state and local government web resources and services.